ADDS METAR Data INFO
IDs: Format: Raw Decoded Include TAF

Data at: 1532 UTC 18 Jun 2018

KTRI 181453Z 23005KT 10SM FEW250 27/21 A3020 RMK AO2 SLP199 T02720211 58004
KTRI 181353Z 00000KT 10SM FEW250 26/20 A3020 RMK AO2 SLP201 T02560200
KTRI 181253Z 00000KT 10SM FEW250 23/20 A3022 RMK AO2 SLP205 T02330200
KTRI 181153Z 00000KT 10SM FEW250 22/21 A3021 RMK AO2 SLP203 T02220206 10222 20189 51008
KTRI 181053Z 00000KT 10SM FEW250 19/19 A3020 RMK AO2 SLP199 T01940194
KTRI 180953Z 00000KT 8SM CLR 19/19 A3020 RMK AO2 SLP200 T01940194
KTRI 180853Z 00000KT 6SM BR CLR 19/19 A3019 RMK AO2 SLP194 T01940194 53003
KTRI 180753Z 00000KT 7SM CLR 20/20 A3018 RMK AO2 SLP192 T02000200
KTRI 180653Z 00000KT 10SM CLR 21/20 A3017 RMK AO2 SLP190 T02060200
KTRI 180553Z 01003KT 10SM CLR 21/21 A3018 RMK AO2 SLP191 T02110206 10294 20206 51007
KTRI 180453Z 00000KT 10SM CLR 22/21 A3017 RMK AO2 SLP189 T02220206 403330178
KTRI 180353Z 00000KT 10SM CLR 22/21 A3017 RMK AO2 SLP187 T02220206
KTRI 180253Z 00000KT 10SM CLR 23/21 A3016 RMK AO2 SLP185 T02280206 53008
KTRI 180153Z 00000KT 10SM CLR 24/21 A3015 RMK AO2 SLP183 T02440211
KTRI 180053Z 00000KT 10SM FEW043 FEW120 29/18 A3013 RMK AO2 SLP176 T02890183
KTRI 172353Z 20004KT 10SM FEW048 FEW150 29/19 A3013 RMK AO2 SLP177 T02940189 10333 20294 53001
KTRI 172253Z 25005KT 10SM FEW050 SCT150 32/19 A3011 RMK AO2 SLP170 T03170194
KTRI 172153Z 18005KT 10SM FEW042 SCT060 32/18 A3012 RMK AO2 SLP173 T03170183
KTRI 172053Z 00000KT 10SM FEW042 SCT060 33/18 A3013 RMK AO2 SLP176 T03280183 56013
KTRI 171953Z VRB03KT 10SM FEW050 SCT120 33/19 A3014 RMK AO2 SLP179 T03280189
KTRI 171853Z VRB04KT 10SM FEW035 32/19 A3015 RMK AO2 LTG DSNT SE AND S SLP182 T03220189
KTRI 171753Z 00000KT 10SM FEW035 32/19 A3017 RMK AO2 SLP189 T03170189 10317 20217 58010
KTRI 171653Z VRB03KT 10SM FEW035 31/21 A3019 RMK AO2 SLP194 T03060211
KTRI 171553Z 17008KT 140V220 10SM FEW035 29/22 A3020 RMK AO2 SLP197 T02940222
KTRI 171453Z VRB03KT 10SM CLR 28/22 A3020 RMK AO2 SLP201 T02830217 50006
KTRI 171353Z 22004KT 10SM CLR 26/21 A3021 RMK AO2 SLP202 T02610211
KTRI 171253Z 00000KT 10SM CLR 23/21 A3020 RMK AO2 SLP201 T02330206
KTRI 171153Z 00000KT 10SM CLR 22/21 A3019 RMK AO2 SLP195 T02170206 10217 20178 51022
KTRI 171053Z 00000KT 6SM BR FEW070 19/19 A3017 RMK AO2 SLP190 T01890189
KTRI 170953Z 00000KT 8SM FEW070 18/18 A3014 RMK AO2 SLP179 T01830183
KTRI 170853Z 00000KT 5SM BR FEW070 SCT180 18/18 A3012 RMK AO2 SLP172 T01830183 55005
KTRI 170653Z 00000KT 7SM FEW070 SCT180 20/20 A3012 RMK AO2 SLP174 T02000200
KTRI 170553Z 00000KT 10SM FEW070 SCT180 21/20 A3013 RMK AO2 SLP177 T02060200 10289 20206 53004
KTRI 170453Z 00000KT 10SM FEW070 SCT180 22/21 A3013 RMK AO2 SLP174 T02220206 403280156
KTRI 170353Z 01003KT 10SM FEW070 22/21 A3012 RMK AO2 SLP174 T02220206